Time;durP1;ratioP1;P1;durP2;ratioP2;P2;SDS_P1;SDS_P2;PMS_P1;PMS_P2;Temp;Humidity;BMP_temperature;BMP_pressure;BME280_temperature;BME280_humidity;BME280_pressure;Samples;Min_cycle;Max_cycle;Signal;HPM_P1;HPM_P2
2023/07/23 00:02:04;;;;;;;3.92;2.58;;;;;;;;;;5076451;28;20278;-60
2023/07/23 00:04:32;;;;;;;2.42;2.20;;;;;;;;;;5094067;28;20265;-62
2023/07/23 00:06:59;;;;;;;2.95;2.65;;;;;;;;;;5084969;28;20208;-61
2023/07/23 00:09:26;;;;;;;5.60;2.40;;;;;;;;;;5091965;28;20224;-60
2023/07/23 00:11:54;;;;;;;3.28;2.20;;;;;;;;;;5063760;28;20201;-61
2023/07/23 00:14:21;;;;;;;3.63;2.50;;;;;;;;;;5086106;28;20204;-61
2023/07/23 00:16:48;;;;;;;2.50;2.05;;;;;;;;;;5065166;28;20209;-63
2023/07/23 00:19:19;;;;;;;3.38;2.42;;;;;;;;;;5083909;28;20580;-61
2023/07/23 00:21:47;;;;;;;2.75;2.55;;;;;;;;;;5086976;28;20569;-61
2023/07/23 00:24:21;;;;;;;3.25;2.35;;;;;;;;;;5082951;28;20296;-63
2023/07/23 00:26:48;;;;;;;2.75;1.90;;;;;;;;;;5068907;28;20208;-63
2023/07/23 00:29:15;;;;;;;3.00;2.60;;;;;;;;;;5091013;28;20761;-60
2023/07/23 00:31:43;;;;;;;3.22;2.60;;;;;;;;;;5083473;28;20658;-62
2023/07/23 00:34:10;;;;;;;2.50;2.25;;;;;;;;;;5080547;28;20292;-61
2023/07/23 00:36:39;;;;;;;2.50;2.30;;;;;;;;;;5089783;28;20254;-61
2023/07/23 00:39:07;;;;;;;2.72;2.45;;;;;;;;;;5092022;28;20284;-61
2023/07/23 00:41:34;;;;;;;2.70;2.50;;;;;;;;;;5081600;28;20205;-63
2023/07/23 00:44:02;;;;;;;3.97;2.33;;;;;;;;;;5087704;28;20193;-62
2023/07/23 00:46:31;;;;;;;3.65;2.67;;;;;;;;;;5085283;28;20572;-62
2023/07/23 00:49:01;;;;;;;2.58;2.38;;;;;;;;;;5081632;28;20628;-62
2023/07/23 00:51:30;;;;;;;3.17;2.25;;;;;;;;;;5088987;28;20205;-62
2023/07/23 00:53:57;;;;;;;2.22;2.00;;;;;;;;;;5070808;28;20228;-61
2023/07/23 00:56:24;;;;;;;3.47;2.55;;;;;;;;;;5079989;28;20209;-64
2023/07/23 00:58:52;;;;;;;2.38;2.10;;;;;;;;;;5090839;28;20581;-63
2023/07/23 01:01:19;;;;;;;2.55;2.33;;;;;;;;;;5075474;28;20833;-61
2023/07/23 01:03:46;;;;;;;3.38;2.30;;;;;;;;;;5075386;28;20261;-62
2023/07/23 01:06:14;;;;;;;3.05;2.70;;;;;;;;;;5075570;28;20236;-62
2023/07/23 01:08:43;;;;;;;3.00;2.63;;;;;;;;;;5069962;28;20961;-61
2023/07/23 01:11:11;;;;;;;3.60;2.63;;;;;;;;;;5067729;28;20653;-63
2023/07/23 01:13:39;;;;;;;3.53;2.55;;;;;;;;;;5079759;28;20224;-61
2023/07/23 01:16:07;;;;;;;2.75;2.55;;;;;;;;;;5075428;28;20540;-61
2023/07/23 01:18:38;;;;;;;2.63;2.42;;;;;;;;;;5078869;28;20241;-62
2023/07/23 01:21:06;;;;;;;4.55;2.30;;;;;;;;;;5074406;28;20211;-62
2023/07/23 01:23:33;;;;;;;2.97;2.78;;;;;;;;;;5076985;28;20293;-61
2023/07/23 01:26:00;;;;;;;3.05;2.60;;;;;;;;;;5071632;28;20209;-62
2023/07/23 01:28:29;;;;;;;2.67;2.30;;;;;;;;;;5075920;28;20207;-61
2023/07/23 01:30:56;;;;;;;2.45;2.25;;;;;;;;;;5075294;28;20565;-63
2023/07/23 01:33:24;;;;;;;4.28;2.40;;;;;;;;;;5071335;28;20715;-63
2023/07/23 01:35:53;;;;;;;2.90;2.45;;;;;;;;;;5073926;28;20212;-61
2023/07/23 01:38:21;;;;;;;4.03;2.63;;;;;;;;;;5072361;28;20271;-64
2023/07/23 01:40:49;;;;;;;2.38;2.17;;;;;;;;;;5070773;28;20841;-61
2023/07/23 01:43:17;;;;;;;3.45;2.40;;;;;;;;;;5073514;28;20222;-62
2023/07/23 01:45:44;;;;;;;4.18;2.42;;;;;;;;;;5076204;28;20216;-63
2023/07/23 01:48:12;;;;;;;2.72;2.42;;;;;;;;;;5077046;28;21314;-62
2023/07/23 01:50:40;;;;;;;4.10;2.38;;;;;;;;;;5072566;28;20438;-62
2023/07/23 01:53:07;;;;;;;3.28;2.42;;;;;;;;;;5078678;28;20216;-62
2023/07/23 01:55:35;;;;;;;2.83;2.60;;;;;;;;;;5077915;28;20247;-60
2023/07/23 01:58:02;;;;;;;2.60;2.35;;;;;;;;;;5073728;28;20201;-62
2023/07/23 02:00:29;;;;;;;2.65;2.45;;;;;;;;;;5073844;28;20680;-62
2023/07/23 02:02:57;;;;;;;2.33;2.13;;;;;;;;;;5073975;28;20225;-61
2023/07/23 02:05:24;;;;;;;2.50;2.30;;;;;;;;;;5073312;28;20201;-60
2023/07/23 02:07:53;;;;;;;2.42;2.22;;;;;;;;;;5083090;28;20268;-61
2023/07/23 02:10:20;;;;;;;2.42;2.22;;;;;;;;;;5081794;28;20213;-61
2023/07/23 02:12:48;;;;;;;2.47;2.28;;;;;;;;;;5078359;28;20585;-62
2023/07/23 02:15:15;;;;;;;4.05;2.47;;;;;;;;;;5067307;28;20212;-60
2023/07/23 02:17:42;;;;;;;2.95;2.67;;;;;;;;;;5069859;28;20205;-62
2023/07/23 02:20:10;;;;;;;2.80;2.15;;;;;;;;;;5072090;28;20688;-60
2023/07/23 02:22:38;;;;;;;4.95;2.35;;;;;;;;;;5064533;28;20229;-61
2023/07/23 02:25:05;;;;;;;2.53;2.37;;;;;;;;;;5064963;28;20560;-61
2023/07/23 02:27:33;;;;;;;3.42;2.63;;;;;;;;;;5069459;28;20200;-60
2023/07/23 02:30:01;;;;;;;2.63;2.42;;;;;;;;;;5065071;28;20225;-62
2023/07/23 02:32:28;;;;;;;3.10;2.80;;;;;;;;;;5067458;28;20213;-61
2023/07/23 02:34:56;;;;;;;2.42;2.22;;;;;;;;;;5071541;28;20266;-61
2023/07/23 02:37:23;;;;;;;2.88;2.67;;;;;;;;;;5067531;28;20208;-60
2023/07/23 02:39:53;;;;;;;2.97;2.55;;;;;;;;;;5064861;28;20202;-62
2023/07/23 02:42:20;;;;;;;2.55;2.30;;;;;;;;;;5073020;28;20217;-61
2023/07/23 02:44:47;;;;;;;2.50;2.30;;;;;;;;;;5062986;28;20201;-61
2023/07/23 02:47:15;;;;;;;3.40;2.20;;;;;;;;;;5071989;28;20278;-62
2023/07/23 02:49:42;;;;;;;3.78;2.50;;;;;;;;;;5073415;28;20204;-62
2023/07/23 02:52:09;;;;;;;3.17;2.38;;;;;;;;;;5071114;28;20221;-62
2023/07/23 02:54:36;;;;;;;2.33;2.15;;;;;;;;;;5067760;28;20212;-62
2023/07/23 02:57:04;;;;;;;3.33;2.30;;;;;;;;;;5061667;28;20262;-61
2023/07/23 02:59:31;;;;;;;5.20;2.70;;;;;;;;;;5066797;28;20217;-61
2023/07/23 03:01:58;;;;;;;3.13;2.65;;;;;;;;;;5069431;28;21066;-63
2023/07/23 03:04:27;;;;;;;2.13;2.03;;;;;;;;;;5063945;28;20201;-62
2023/07/23 03:06:56;;;;;;;3.83;2.70;;;;;;;;;;5072309;28;20198;-61
2023/07/23 03:09:23;;;;;;;2.70;2.50;;;;;;;;;;5072145;28;20201;-60
2023/07/23 03:11:50;;;;;;;5.47;2.92;;;;;;;;;;5072602;28;20220;-62
2023/07/23 03:14:18;;;;;;;2.85;2.45;;;;;;;;;;5066491;28;20198;-63
2023/07/23 03:16:45;;;;;;;4.93;2.53;;;;;;;;;;5068133;28;20202;-60
2023/07/23 03:19:12;;;;;;;3.00;2.27;;;;;;;;;;5073411;28;20291;-61
2023/07/23 03:21:40;;;;;;;2.50;2.30;;;;;;;;;;5066100;28;20197;-61
2023/07/23 03:24:07;;;;;;;2.97;2.40;;;;;;;;;;5069265;28;20684;-60
2023/07/23 03:26:35;;;;;;;2.53;2.33;;;;;;;;;;5073568;28;20579;-61
2023/07/23 03:29:02;;;;;;;2.58;2.38;;;;;;;;;;5068562;28;20257;-62
2023/07/23 03:31:29;;;;;;;2.90;2.20;;;;;;;;;;5073481;28;20228;-61
2023/07/23 03:33:57;;;;;;;2.73;2.50;;;;;;;;;;5076888;28;20307;-63
2023/07/23 03:36:25;;;;;;;3.10;2.28;;;;;;;;;;5060138;28;20284;-61
2023/07/23 03:38:52;;;;;;;3.35;2.40;;;;;;;;;;5081282;28;20197;-62
2023/07/23 03:41:19;;;;;;;2.77;2.53;;;;;;;;;;5079746;28;20212;-62
2023/07/23 03:43:47;;;;;;;3.80;2.80;;;;;;;;;;5069477;28;20229;-62
2023/07/23 03:46:14;;;;;;;3.25;2.50;;;;;;;;;;5071023;28;20712;-62
2023/07/23 03:48:42;;;;;;;2.63;2.42;;;;;;;;;;5058612;28;20210;-62
2023/07/23 03:51:09;;;;;;;3.25;2.95;;;;;;;;;;5074468;28;20245;-60
2023/07/23 03:53:37;;;;;;;3.78;2.65;;;;;;;;;;5081088;28;20221;-63
2023/07/23 03:56:04;;;;;;;2.92;2.38;;;;;;;;;;5072280;28;20197;-61
2023/07/23 03:58:31;;;;;;;3.37;2.67;;;;;;;;;;5083947;28;20197;-61
2023/07/23 04:00:59;;;;;;;2.65;2.45;;;;;;;;;;5081146;28;20644;-61
2023/07/23 04:03:26;;;;;;;3.45;2.50;;;;;;;;;;5079796;28;20221;-61
2023/07/23 04:05:53;;;;;;;2.88;2.60;;;;;;;;;;5078289;28;20228;-61
2023/07/23 04:08:21;;;;;;;3.40;2.50;;;;;;;;;;5081911;28;20201;-62
2023/07/23 04:10:48;;;;;;;3.55;2.70;;;;;;;;;;5086569;28;20279;-62
2023/07/23 04:13:15;;;;;;;4.32;2.83;;;;;;;;;;5081889;28;20279;-62
2023/07/23 04:15:43;;;;;;;3.78;2.72;;;;;;;;;;5079855;28;20200;-60
2023/07/23 04:18:13;;;;;;;3.03;2.78;;;;;;;;;;5082510;28;20193;-61
2023/07/23 04:20:41;;;;;;;4.60;2.47;;;;;;;;;;5082391;28;20213;-62
2023/07/23 04:23:08;;;;;;;3.05;2.33;;;;;;;;;;5080906;28;20637;-63
2023/07/23 04:25:36;;;;;;;3.05;2.75;;;;;;;;;;5075237;28;20208;-61
2023/07/23 04:28:03;;;;;;;2.85;2.58;;;;;;;;;;5081687;28;20271;-63
2023/07/23 04:30:33;;;;;;;4.47;2.60;;;;;;;;;;5084212;28;20236;-63
2023/07/23 04:33:01;;;;;;;2.97;2.35;;;;;;;;;;5087031;28;20249;-62
2023/07/23 04:35:28;;;;;;;3.27;2.30;;;;;;;;;;5075158;28;20197;-60
2023/07/23 04:37:55;;;;;;;2.45;2.25;;;;;;;;;;5085204;28;20197;-60
2023/07/23 04:40:23;;;;;;;4.45;2.92;;;;;;;;;;5077290;28;20204;-63
2023/07/23 04:42:50;;;;;;;4.82;3.03;;;;;;;;;;5056138;28;20282;-62
2023/07/23 04:45:17;;;;;;;2.80;2.50;;;;;;;;;;5081197;28;20215;-61
2023/07/23 04:47:44;;;;;;;3.35;2.67;;;;;;;;;;5078749;28;20200;-60
2023/07/23 04:50:12;;;;;;;4.65;2.78;;;;;;;;;;5064027;28;20217;-63
2023/07/23 04:52:39;;;;;;;2.97;2.38;;;;;;;;;;5091764;28;20639;-62
2023/07/23 04:55:08;;;;;;;3.40;2.50;;;;;;;;;;5073723;28;20599;-63
2023/07/23 04:57:35;;;;;;;3.55;2.38;;;;;;;;;;5078580;28;20644;-62
2023/07/23 05:00:06;;;;;;;2.70;2.50;;;;;;;;;;5076074;28;20201;-62
2023/07/23 05:02:33;;;;;;;3.40;2.70;;;;;;;;;;5070262;28;20225;-60
2023/07/23 05:05:01;;;;;;;4.00;2.80;;;;;;;;;;5055810;28;20291;-63
2023/07/23 05:07:28;;;;;;;3.95;2.67;;;;;;;;;;5068887;28;20213;-61
2023/07/23 05:09:55;;;;;;;3.30;2.80;;;;;;;;;;5063073;28;20201;-62
2023/07/23 05:12:23;;;;;;;3.22;2.80;;;;;;;;;;5081285;28;20315;-62
2023/07/23 05:14:50;;;;;;;3.15;2.70;;;;;;;;;;5087084;28;20205;-61
2023/07/23 05:17:17;;;;;;;2.78;2.58;;;;;;;;;;5078776;28;20691;-62
2023/07/23 05:19:45;;;;;;;3.55;2.72;;;;;;;;;;5082992;28;20295;-61
2023/07/23 05:22:12;;;;;;;2.92;2.60;;;;;;;;;;5080545;28;20522;-62
2023/07/23 05:24:39;;;;;;;5.07;3.10;;;;;;;;;;5081715;28;20233;-63
2023/07/23 05:27:07;;;;;;;3.17;2.67;;;;;;;;;;5088316;28;20213;-61
2023/07/23 05:29:34;;;;;;;2.65;2.45;;;;;;;;;;5075483;28;20201;-62
2023/07/23 05:32:01;;;;;;;3.47;2.63;;;;;;;;;;5076846;28;20221;-61
2023/07/23 05:34:28;;;;;;;2.78;2.58;;;;;;;;;;5063695;28;20197;-63
2023/07/23 05:36:56;;;;;;;2.60;2.40;;;;;;;;;;5068212;28;20217;-61
2023/07/23 05:39:23;;;;;;;3.30;2.60;;;;;;;;;;5094081;28;20246;-62
2023/07/23 05:41:51;;;;;;;4.10;2.30;;;;;;;;;;5089237;28;20201;-61
2023/07/23 05:44:18;;;;;;;3.03;2.47;;;;;;;;;;5100008;28;20209;-63
2023/07/23 05:46:45;;;;;;;2.33;2.20;;;;;;;;;;5076296;28;20050;-61
2023/07/23 05:49:12;;;;;;;2.60;2.40;;;;;;;;;;5080470;28;20571;-60
2023/07/23 05:51:40;;;;;;;2.63;2.30;;;;;;;;;;5082239;28;20228;-62
2023/07/23 05:54:07;;;;;;;3.08;2.10;;;;;;;;;;5061844;28;20204;-61
2023/07/23 05:56:34;;;;;;;2.15;1.90;;;;;;;;;;5075687;28;20198;-62
2023/07/23 05:59:02;;;;;;;3.13;2.60;;;;;;;;;;5087094;28;20718;-61
2023/07/23 06:01:29;;;;;;;2.50;2.30;;;;;;;;;;5065755;28;20208;-61
2023/07/23 06:03:57;;;;;;;2.45;2.08;;;;;;;;;;5063073;28;20320;-64
2023/07/23 06:06:25;;;;;;;3.38;2.15;;;;;;;;;;5088032;28;20200;-61
2023/07/23 06:08:52;;;;;;;3.38;2.30;;;;;;;;;;5087685;28;20201;-63
2023/07/23 06:11:21;;;;;;;2.10;2.00;;;;;;;;;;5093892;28;20224;-62
2023/07/23 06:13:48;;;;;;;3.83;2.33;;;;;;;;;;5086950;28;20217;-61
2023/07/23 06:16:16;;;;;;;3.15;2.35;;;;;;;;;;5087245;28;20208;-63
2023/07/23 06:18:43;;;;;;;2.10;1.90;;;;;;;;;;5083911;28;20197;-63
2023/07/23 06:21:10;;;;;;;2.25;2.10;;;;;;;;;;5084463;28;20570;-61
2023/07/23 06:23:37;;;;;;;2.10;2.00;;;;;;;;;;5088267;28;20471;-61
2023/07/23 06:26:05;;;;;;;2.15;2.00;;;;;;;;;;5082876;28;20200;-62
2023/07/23 06:28:33;;;;;;;2.45;2.25;;;;;;;;;;5084216;28;20703;-64
2023/07/23 06:31:00;;;;;;;2.70;2.50;;;;;;;;;;5067952;28;20224;-64
2023/07/23 06:33:28;;;;;;;2.38;2.17;;;;;;;;;;5064153;28;20221;-62
2023/07/23 06:35:55;;;;;;;2.70;2.50;;;;;;;;;;5078753;28;20220;-62
2023/07/23 06:38:22;;;;;;;2.33;2.17;;;;;;;;;;5082074;28;20196;-64
2023/07/23 06:40:53;;;;;;;3.22;2.03;;;;;;;;;;5088614;28;20288;-61
2023/07/23 06:43:20;;;;;;;2.50;2.30;;;;;;;;;;5079631;28;20627;-62
2023/07/23 06:45:49;;;;;;;2.30;2.10;;;;;;;;;;5079892;28;20216;-62
2023/07/23 06:48:18;;;;;;;5.72;2.22;;;;;;;;;;5082068;28;20220;-63
2023/07/23 06:50:46;;;;;;;2.50;1.98;;;;;;;;;;5083284;28;20209;-62
2023/07/23 06:53:14;;;;;;;2.33;2.13;;;;;;;;;;5059813;28;20231;-64
2023/07/23 06:56:00;;;;;;;2.30;2.10;;;;;;;;;;5079679;28;20717;-63
2023/07/23 06:58:28;;;;;;;3.40;2.33;;;;;;;;;;5076635;28;20377;-63
2023/07/23 07:00:57;;;;;;;2.65;2.30;;;;;;;;;;5083474;28;20689;-63
2023/07/23 07:03:25;;;;;;;2.03;1.90;;;;;;;;;;5089997;28;20759;-63
2023/07/23 07:05:52;;;;;;;3.17;2.13;;;;;;;;;;5086225;28;20196;-61
2023/07/23 07:08:19;;;;;;;3.03;2.25;;;;;;;;;;5070973;28;20315;-62
2023/07/23 07:10:47;;;;;;;2.58;2.10;;;;;;;;;;5089013;28;20204;-61
2023/07/23 07:13:14;;;;;;;2.30;2.20;;;;;;;;;;5084330;28;20227;-62
2023/07/23 07:15:42;;;;;;;2.00;1.90;;;;;;;;;;5088897;28;20602;-62
2023/07/23 07:18:09;;;;;;;3.50;2.45;;;;;;;;;;5090490;28;20194;-62
2023/07/23 07:20:37;;;;;;;2.50;2.22;;;;;;;;;;5076321;28;20289;-62
2023/07/23 07:23:04;;;;;;;2.30;2.10;;;;;;;;;;5062850;28;20220;-60
2023/07/23 07:25:31;;;;;;;2.00;1.90;;;;;;;;;;5080707;28;20205;-63
2023/07/23 07:27:59;;;;;;;2.85;2.40;;;;;;;;;;5084868;28;20200;-61
2023/07/23 07:30:26;;;;;;;2.78;2.20;;;;;;;;;;5082710;28;20205;-64
2023/07/23 07:32:53;;;;;;;2.55;2.05;;;;;;;;;;5084257;28;20233;-61
2023/07/23 07:35:21;;;;;;;2.97;2.00;;;;;;;;;;5075889;28;20284;-62
2023/07/23 07:37:48;;;;;;;3.38;2.33;;;;;;;;;;5076389;28;20265;-63
2023/07/23 07:40:15;;;;;;;3.53;1.73;;;;;;;;;;5073972;28;20193;-62
2023/07/23 07:42:42;;;;;;;2.17;1.90;;;;;;;;;;5074003;28;20228;-62
2023/07/23 07:45:12;;;;;;;2.70;2.28;;;;;;;;;;5075812;28;20206;-63
2023/07/23 07:47:40;;;;;;;3.05;2.42;;;;;;;;;;5084018;28;20783;-62
2023/07/23 07:50:08;;;;;;;2.20;1.90;;;;;;;;;;5065260;28;20284;-62
2023/07/23 07:52:36;;;;;;;2.42;2.00;;;;;;;;;;5097824;28;20479;-61
2023/07/23 07:55:03;;;;;;;2.25;2.08;;;;;;;;;;5081194;28;20206;-63
2023/07/23 07:57:32;;;;;;;1.83;1.73;;;;;;;;;;5094019;28;20628;-62
2023/07/23 08:00:02;;;;;;;2.20;2.00;;;;;;;;;;5070448;28;20419;-62
2023/07/23 08:02:30;;;;;;;1.90;1.80;;;;;;;;;;5085552;28;20227;-62
2023/07/23 08:04:57;;;;;;;1.90;1.80;;;;;;;;;;5094319;28;20207;-62
2023/07/23 08:07:26;;;;;;;2.63;1.98;;;;;;;;;;5089251;28;20714;-63
2023/07/23 08:09:53;;;;;;;4.03;2.00;;;;;;;;;;5068926;28;20220;-61
2023/07/23 08:12:22;;;;;;;2.00;1.90;;;;;;;;;;5080142;28;20221;-62
2023/07/23 08:14:50;;;;;;;2.17;1.80;;;;;;;;;;5074440;28;20208;-62
2023/07/23 08:17:17;;;;;;;2.85;2.28;;;;;;;;;;5081043;28;20204;-63
2023/07/23 08:19:45;;;;;;;5.07;2.25;;;;;;;;;;5076792;28;20200;-61
2023/07/23 08:22:12;;;;;;;4.22;1.90;;;;;;;;;;5083779;28;20234;-62
2023/07/23 08:24:39;;;;;;;2.13;2.03;;;;;;;;;;5075740;28;20652;-61
2023/07/23 08:27:07;;;;;;;2.08;1.98;;;;;;;;;;5079288;28;20285;-61
2023/07/23 08:29:35;;;;;;;1.90;1.80;;;;;;;;;;5073553;28;20210;-62
2023/07/23 08:32:02;;;;;;;2.70;2.30;;;;;;;;;;5046865;28;20338;-62
2023/07/23 08:34:30;;;;;;;2.38;2.10;;;;;;;;;;5069482;28;20200;-61
2023/07/23 08:36:58;;;;;;;2.38;2.17;;;;;;;;;;5068169;28;20205;-62
2023/07/23 08:39:26;;;;;;;2.38;2.17;;;;;;;;;;5075251;28;20205;-61
2023/07/23 08:42:05;;;;;;;2.95;2.00;;;;;;;;;;5057586;28;20204;-61
2023/07/23 08:44:39;;;;;;;2.38;2.17;;;;;;;;;;5054399;28;21338;-61
2023/07/23 08:47:13;;;;;;;3.30;2.28;;;;;;;;;;5076506;28;20774;-63
2023/07/23 08:49:41;;;;;;;3.38;2.10;;;;;;;;;;5069639;28;20216;-61
2023/07/23 08:52:13;;;;;;;2.10;2.00;;;;;;;;;;5067760;28;20290;-63
2023/07/23 08:54:42;;;;;;;4.85;2.17;;;;;;;;;;5071720;28;20686;-63
2023/07/23 08:57:10;;;;;;;2.30;2.10;;;;;;;;;;5059847;28;20206;-62
2023/07/23 08:59:38;;;;;;;2.92;2.63;;;;;;;;;;5079578;28;20220;-62
2023/07/23 09:02:07;;;;;;;2.55;2.35;;;;;;;;;;5081456;28;20220;-64
2023/07/23 09:04:35;;;;;;;3.08;2.42;;;;;;;;;;5081432;28;20201;-62
2023/07/23 09:07:03;;;;;;;2.30;2.20;;;;;;;;;;5082207;28;20201;-61
2023/07/23 09:09:30;;;;;;;3.35;2.30;;;;;;;;;;5082483;28;20236;-62
2023/07/23 09:11:59;;;;;;;3.33;2.13;;;;;;;;;;5097759;28;20672;-62
2023/07/23 09:14:27;;;;;;;2.88;2.60;;;;;;;;;;5084549;28;20197;-61
2023/07/23 09:16:54;;;;;;;2.53;2.33;;;;;;;;;;5076203;28;20204;-61
2023/07/23 09:19:22;;;;;;;2.50;2.30;;;;;;;;;;5084362;28;20280;-63
2023/07/23 09:21:50;;;;;;;2.50;2.30;;;;;;;;;;5081991;28;20223;-63
2023/07/23 09:24:17;;;;;;;2.95;2.50;;;;;;;;;;5081105;28;20204;-60
2023/07/23 09:26:46;;;;;;;2.63;2.35;;;;;;;;;;5078071;28;20652;-63
2023/07/23 09:29:17;;;;;;;2.67;2.47;;;;;;;;;;5080635;28;20280;-63
2023/07/23 09:31:45;;;;;;;2.50;2.30;;;;;;;;;;5079609;28;20224;-62
2023/07/23 09:34:19;;;;;;;2.97;2.28;;;;;;;;;;5082329;28;20291;-63
2023/07/23 09:36:46;;;;;;;2.85;2.60;;;;;;;;;;5088163;28;20193;-62
2023/07/23 09:39:13;;;;;;;3.25;2.40;;;;;;;;;;5058455;28;20204;-62
2023/07/23 09:41:40;;;;;;;2.20;2.00;;;;;;;;;;5081841;28;20210;-62
2023/07/23 09:44:09;;;;;;;3.05;2.40;;;;;;;;;;5074625;28;20202;-62
2023/07/23 09:46:37;;;;;;;3.35;2.50;;;;;;;;;;5070883;28;20208;-62
2023/07/23 09:49:04;;;;;;;3.05;2.72;;;;;;;;;;5075221;28;20202;-61
2023/07/23 09:51:32;;;;;;;3.28;2.97;;;;;;;;;;5075535;28;20293;-62
2023/07/23 09:54:01;;;;;;;3.60;2.85;;;;;;;;;;5073586;28;20723;-62
2023/07/23 09:56:28;;;;;;;2.42;2.33;;;;;;;;;;5078001;28;20203;-62
2023/07/23 09:58:57;;;;;;;3.55;3.13;;;;;;;;;;5088032;28;20192;-62
2023/07/23 10:01:25;;;;;;;3.90;2.83;;;;;;;;;;5084607;28;20653;-62
2023/07/23 10:03:54;;;;;;;3.08;2.67;;;;;;;;;;5075366;28;20273;-62
2023/07/23 10:06:23;;;;;;;4.03;3.05;;;;;;;;;;5080926;28;20687;-62
2023/07/23 10:08:52;;;;;;;3.90;2.90;;;;;;;;;;5083064;28;20204;-62
2023/07/23 10:11:19;;;;;;;3.72;3.33;;;;;;;;;;5075251;28;20204;-62
2023/07/23 10:13:48;;;;;;;4.30;3.10;;;;;;;;;;5079905;28;20233;-61
2023/07/23 10:16:23;;;;;;;4.78;3.83;;;;;;;;;;5083752;28;20201;-62
2023/07/23 10:18:51;;;;;;;6.75;3.53;;;;;;;;;;5077740;28;20197;-62
2023/07/23 10:21:19;;;;;;;3.50;3.15;;;;;;;;;;5085192;28;20209;-63
2023/07/23 10:23:52;;;;;;;14.77;13.30;;;;;;;;;;5073277;28;20312;-62
2023/07/23 10:26:30;;;;;;;3.30;2.90;;;;;;;;;;5056264;28;20210;-61
2023/07/23 10:29:07;;;;;;;3.85;3.03;;;;;;;;;;5065462;28;20217;-62
2023/07/23 10:31:34;;;;;;;3.72;2.83;;;;;;;;;;5073493;28;20845;-63
2023/07/23 10:34:02;;;;;;;2.83;2.55;;;;;;;;;;5079902;28;20756;-63
2023/07/23 10:36:29;;;;;;;3.35;3.05;;;;;;;;;;5077921;28;20259;-62
2023/07/23 10:39:20;;;;;;;3.08;2.78;;;;;;;;;;5069784;28;20665;-61
2023/07/23 10:41:49;;;;;;;3.72;3.17;;;;;;;;;;5076711;28;20211;-63
2023/07/23 10:44:28;;;;;;;4.72;3.45;;;;;;;;;;5053251;28;20213;-63
2023/07/23 10:46:59;;;;;;;4.00;3.33;;;;;;;;;;5068701;28;20668;-63
2023/07/23 10:49:30;;;;;;;3.50;3.17;;;;;;;;;;5062143;28;20212;-61
2023/07/23 10:52:14;;;;;;;4.72;3.25;;;;;;;;;;5069086;28;20209;-63
2023/07/23 10:54:41;;;;;;;3.40;3.10;;;;;;;;;;5074155;28;20753;-62
2023/07/23 10:57:22;;;;;;;6.50;3.63;;;;;;;;;;5064933;28;20221;-61
2023/07/23 10:59:53;;;;;;;3.25;2.95;;;;;;;;;;5070188;28;20251;-62
2023/07/23 11:02:27;;;;;;;4.97;3.25;;;;;;;;;;5078700;28;20227;-62
2023/07/23 11:04:58;;;;;;;3.53;3.13;;;;;;;;;;5078880;28;20216;-63
2023/07/23 11:07:26;;;;;;;3.40;3.10;;;;;;;;;;5067116;28;20259;-61
2023/07/23 11:09:57;;;;;;;3.20;2.88;;;;;;;;;;5075614;28;20208;-63
2023/07/23 11:12:24;;;;;;;5.22;3.25;;;;;;;;;;5074866;28;20500;-61
2023/07/23 11:14:52;;;;;;;4.07;3.00;;;;;;;;;;5079941;28;20193;-61
2023/07/23 11:17:20;;;;;;;3.55;3.25;;;;;;;;;;5064469;28;20209;-63
2023/07/23 11:19:48;;;;;;;2.97;2.70;;;;;;;;;;5064805;28;20725;-63
2023/07/23 11:22:15;;;;;;;2.88;2.67;;;;;;;;;;5064465;28;20237;-61
2023/07/23 11:24:42;;;;;;;3.08;2.78;;;;;;;;;;5064754;28;20733;-62
2023/07/23 11:27:10;;;;;;;3.45;2.67;;;;;;;;;;5059219;28;20216;-62
2023/07/23 11:29:37;;;;;;;3.35;2.67;;;;;;;;;;5062604;28;20316;-62
2023/07/23 11:32:05;;;;;;;3.53;2.65;;;;;;;;;;5058739;28;20229;-64
2023/07/23 11:34:33;;;;;;;4.25;3.03;;;;;;;;;;5059125;28;20208;-63
2023/07/23 11:37:00;;;;;;;10.95;9.75;;;;;;;;;;5061138;28;20212;-63
2023/07/23 11:39:27;;;;;;;4.78;3.50;;;;;;;;;;5058640;28;20258;-62
2023/07/23 11:41:55;;;;;;;5.22;3.83;;;;;;;;;;5061003;28;20558;-64
2023/07/23 11:44:23;;;;;;;4.25;3.67;;;;;;;;;;5077926;28;20216;-63
2023/07/23 11:46:50;;;;;;;4.57;3.72;;;;;;;;;;5058977;28;20455;-62
2023/07/23 11:49:17;;;;;;;4.60;4.03;;;;;;;;;;5087851;28;20204;-62
2023/07/23 11:51:45;;;;;;;5.20;3.75;;;;;;;;;;5091867;28;20185;-62
2023/07/23 11:54:13;;;;;;;6.35;4.35;;;;;;;;;;5078155;28;20233;-61
2023/07/23 11:56:47;;;;;;;4.63;4.15;;;;;;;;;;5062995;28;20297;-62
2023/07/23 11:59:16;;;;;;;6.88;4.45;;;;;;;;;;5066167;28;22206;-62
2023/07/23 12:01:45;;;;;;;5.82;4.20;;;;;;;;;;5080308;28;20208;-64
2023/07/23 12:04:13;;;;;;;5.70;4.28;;;;;;;;;;5063310;28;20279;-63
2023/07/23 12:06:41;;;;;;;5.18;4.65;;;;;;;;;;5065697;28;20316;-61
2023/07/23 12:09:09;;;;;;;6.18;5.22;;;;;;;;;;5065444;28;20202;-63
2023/07/23 12:11:38;;;;;;;6.20;5.00;;;;;;;;;;5073087;28;20208;-63
2023/07/23 12:14:07;;;;;;;6.40;4.75;;;;;;;;;;5064267;28;22217;-65
2023/07/23 12:16:42;;;;;;;5.00;4.30;;;;;;;;;;5060812;28;20208;-66
2023/07/23 12:19:11;;;;;;;5.57;4.47;;;;;;;;;;5066962;28;20205;-64
2023/07/23 12:21:40;;;;;;;5.75;4.90;;;;;;;;;;5071636;28;20204;-64
2023/07/23 12:24:11;;;;;;;5.38;4.57;;;;;;;;;;5062835;28;20227;-61
2023/07/23 12:26:38;;;;;;;5.70;4.65;;;;;;;;;;5065082;28;21967;-62
2023/07/23 12:29:06;;;;;;;5.20;4.60;;;;;;;;;;5071353;28;20226;-62
2023/07/23 12:31:43;;;;;;;5.63;4.45;;;;;;;;;;5073180;28;20370;-62
2023/07/23 12:34:11;;;;;;;6.03;4.82;;;;;;;;;;5086299;28;20208;-62
2023/07/23 12:36:38;;;;;;;6.75;4.80;;;;;;;;;;5088680;28;20208;-64
2023/07/23 12:39:07;;;;;;;4.95;4.53;;;;;;;;;;5090460;28;20242;-62
2023/07/23 12:41:34;;;;;;;5.00;4.50;;;;;;;;;;5097970;28;20309;-62
2023/07/23 12:44:02;;;;;;;7.32;4.75;;;;;;;;;;5099030;28;20216;-60
2023/07/23 12:46:30;;;;;;;6.07;4.75;;;;;;;;;;5091157;28;20266;-62
2023/07/23 12:48:58;;;;;;;5.82;4.78;;;;;;;;;;5071441;28;20223;-63
2023/07/23 12:51:26;;;;;;;5.38;4.75;;;;;;;;;;5089419;28;20247;-62
2023/07/23 12:53:54;;;;;;;5.75;5.15;;;;;;;;;;5087440;28;20229;-64
2023/07/23 12:56:21;;;;;;;6.50;4.55;;;;;;;;;;5098706;28;20203;-62
2023/07/23 12:58:49;;;;;;;5.65;4.30;;;;;;;;;;5094720;28;20201;-64
2023/07/23 13:01:16;;;;;;;5.97;4.63;;;;;;;;;;5087300;28;20193;-63
2023/07/23 13:03:43;;;;;;;5.65;4.20;;;;;;;;;;5090653;28;20217;-63
2023/07/23 13:06:11;;;;;;;4.72;4.25;;;;;;;;;;5090705;28;20216;-61
2023/07/23 13:08:38;;;;;;;5.82;3.92;;;;;;;;;;5071903;28;20577;-63
2023/07/23 13:11:05;;;;;;;5.07;4.32;;;;;;;;;;5092301;28;20258;-62
2023/07/23 13:13:33;;;;;;;5.70;4.85;;;;;;;;;;5091475;28;20224;-62
2023/07/23 13:16:01;;;;;;;4.65;4.13;;;;;;;;;;5088113;28;20209;-64
2023/07/23 13:18:28;;;;;;;4.18;3.40;;;;;;;;;;5089580;28;20293;-64
2023/07/23 13:20:56;;;;;;;4.43;4.03;;;;;;;;;;5085482;28;20193;-63
2023/07/23 13:23:23;;;;;;;4.80;3.75;;;;;;;;;;5088599;28;20307;-64
2023/07/23 13:25:52;;;;;;;4.85;4.10;;;;;;;;;;5093720;28;20212;-65
2023/07/23 13:28:19;;;;;;;6.00;4.38;;;;;;;;;;5088187;28;20205;-62
2023/07/23 13:30:48;;;;;;;5.50;4.93;;;;;;;;;;5082653;28;20257;-62
2023/07/23 13:33:17;;;;;;;5.82;4.72;;;;;;;;;;5094146;28;20264;-63
2023/07/23 13:35:44;;;;;;;5.95;5.35;;;;;;;;;;5066597;28;20224;-62
2023/07/23 13:38:12;;;;;;;5.25;4.55;;;;;;;;;;5049453;28;20209;-62
2023/07/23 13:40:40;;;;;;;6.47;5.20;;;;;;;;;;5061867;28;20209;-62
2023/07/23 13:43:07;;;;;;;8.00;5.95;;;;;;;;;;5043224;28;20310;-62
2023/07/23 13:45:34;;;;;;;5.95;4.70;;;;;;;;;;5065109;28;20349;-62
2023/07/23 13:48:02;;;;;;;7.70;6.78;;;;;;;;;;5063619;28;20686;-66
2023/07/23 13:50:29;;;;;;;6.47;5.03;;;;;;;;;;5069391;28;20205;-63
2023/07/23 13:53:16;;;;;;;7.63;5.55;;;;;;;;;;5065000;28;20718;-65
2023/07/23 13:55:44;;;;;;;5.72;5.00;;;;;;;;;;5064932;28;20197;-62
2023/07/23 13:58:11;;;;;;;5.65;4.93;;;;;;;;;;5063237;28;20205;-63
2023/07/23 14:00:38;;;;;;;7.95;5.35;;;;;;;;;;5060771;28;20335;-62
2023/07/23 14:03:06;;;;;;;5.88;4.97;;;;;;;;;;5071948;28;20225;-62
2023/07/23 14:05:33;;;;;;;6.00;5.13;;;;;;;;;;5070433;28;20301;-62
2023/07/23 14:08:00;;;;;;;5.82;5.03;;;;;;;;;;5061567;28;20229;-63
2023/07/23 14:10:28;;;;;;;5.88;5.03;;;;;;;;;;5063085;28;20235;-62
2023/07/23 14:12:55;;;;;;;6.03;5.10;;;;;;;;;;5062133;28;20314;-61
2023/07/23 14:15:23;;;;;;;5.63;4.90;;;;;;;;;;5060606;28;20202;-65
2023/07/23 14:17:50;;;;;;;6.15;5.35;;;;;;;;;;5063388;28;20478;-61
2023/07/23 14:20:17;;;;;;;6.88;4.70;;;;;;;;;;5068652;28;20201;-63
2023/07/23 14:22:45;;;;;;;5.63;5.03;;;;;;;;;;5066425;28;20225;-62
2023/07/23 14:25:12;;;;;;;7.15;5.07;;;;;;;;;;5088738;28;20211;-64
2023/07/23 14:27:39;;;;;;;5.57;4.88;;;;;;;;;;5089912;28;20251;-62
2023/07/23 14:30:08;;;;;;;6.55;5.05;;;;;;;;;;5070043;28;20629;-63
2023/07/23 14:32:35;;;;;;;7.30;5.28;;;;;;;;;;5071628;28;20231;-62
2023/07/23 14:35:03;;;;;;;6.55;4.60;;;;;;;;;;5073381;28;20229;-61
2023/07/23 14:37:30;;;;;;;4.97;4.43;;;;;;;;;;5056066;28;20201;-63
2023/07/23 14:39:58;;;;;;;5.95;4.90;;;;;;;;;;5067298;28;20197;-62
2023/07/23 14:42:25;;;;;;;7.32;5.43;;;;;;;;;;5067300;28;20598;-64
2023/07/23 14:44:52;;;;;;;6.88;5.60;;;;;;;;;;5085020;28;20296;-63
2023/07/23 14:47:20;;;;;;;6.22;5.07;;;;;;;;;;5065483;28;20282;-64
2023/07/23 14:49:47;;;;;;;5.93;5.18;;;;;;;;;;5067640;28;20586;-64